Time;durP1;ratioP1;P1;durP2;ratioP2;P2;SDS_P1;SDS_P2;PMS_P1;PMS_P2;Temp;Humidity;BMP_temperature;BMP_pressure;BME280_temperature;BME280_humidity;BME280_pressure;Samples;Min_cycle;Max_cycle;Signal;HPM_P1;HPM_P2
2022/11/21 00:01:48;;;;;;;6.20;2.92;;;;;;;;;;10329786;28;20034;-50
2022/11/21 00:06:51;;;;;;;5.25;3.05;;;;;;;;;;10329711;28;20417;-51
2022/11/21 00:11:51;;;;;;;4.63;3.00;;;;;;;;;;10329897;28;20054;-57
2022/11/21 00:16:52;;;;;;;5.40;3.20;;;;;;;;;;10329044;28;20034;-54
2022/11/21 00:21:53;;;;;;;6.53;2.67;;;;;;;;;;10328104;28;20030;-59
2022/11/21 00:26:53;;;;;;;4.57;2.72;;;;;;;;;;10329065;28;20046;-62
2022/11/21 00:31:54;;;;;;;5.63;3.10;;;;;;;;;;10328201;28;20109;-64
2022/11/21 00:36:54;;;;;;;15.95;3.08;;;;;;;;;;10328655;28;20038;-54
2022/11/21 00:41:55;;;;;;;4.93;3.30;;;;;;;;;;10328631;28;20494;-65
2022/11/21 00:46:56;;;;;;;8.30;3.28;;;;;;;;;;10326682;28;20274;-57
2022/11/21 00:51:56;;;;;;;4.32;3.03;;;;;;;;;;10327516;28;20048;-53
2022/11/21 00:56:57;;;;;;;3.50;2.72;;;;;;;;;;10327353;28;20034;-58
2022/11/21 01:01:58;;;;;;;5.43;2.78;;;;;;;;;;10327536;28;20026;-62
2022/11/21 01:06:58;;;;;;;4.18;2.90;;;;;;;;;;10327761;28;20062;-64
2022/11/21 01:11:59;;;;;;;4.03;2.63;;;;;;;;;;10327155;28;20030;-65
2022/11/21 01:16:59;;;;;;;8.80;3.58;;;;;;;;;;10327844;28;20022;-65
2022/11/21 01:22:00;;;;;;;5.10;3.25;;;;;;;;;;10327434;28;20026;-63
2022/11/21 01:27:01;;;;;;;3.92;3.00;;;;;;;;;;10326638;28;20486;-65
2022/11/21 01:32:01;;;;;;;6.53;3.00;;;;;;;;;;10330463;28;20053;-62
2022/11/21 01:37:02;;;;;;;4.32;2.65;;;;;;;;;;10335024;28;20528;-50
2022/11/21 01:42:02;;;;;;;4.60;2.85;;;;;;;;;;10334648;28;20478;-53
2022/11/21 01:47:03;;;;;;;6.00;2.83;;;;;;;;;;10334377;28;20061;-52
2022/11/21 01:52:14;;;;;;;4.25;2.80;;;;;;;;;;10333591;28;20030;-64
2022/11/21 01:57:36;;;;;;;5.20;2.53;;;;;;;;;;10333251;28;20027;-58
2022/11/21 02:03:01;;;;;;;4.53;2.45;;;;;;;;;;10333761;28;20023;-59
2022/11/21 02:08:25;;;;;;;4.90;2.75;;;;;;;;;;10332125;28;20041;-62
2022/11/21 02:13:25;;;;;;;4.55;2.47;;;;;;;;;;10332639;28;20042;-64
2022/11/21 02:18:26;;;;;;;4.03;2.72;;;;;;;;;;10333965;28;20041;-64
2022/11/21 02:23:43;;;;;;;4.25;2.50;;;;;;;;;;10333674;28;20454;-65
2022/11/21 02:28:44;;;;;;;3.17;2.63;;;;;;;;;;10331332;28;20449;-61
2022/11/21 02:33:45;;;;;;;6.22;2.50;;;;;;;;;;10332593;28;20093;-62
2022/11/21 02:38:45;;;;;;;3.30;2.53;;;;;;;;;;10332558;28;20046;-62
2022/11/21 02:43:56;;;;;;;2.92;2.38;;;;;;;;;;10330981;28;20073;-63
2022/11/21 02:48:57;;;;;;;3.45;2.63;;;;;;;;;;10330649;28;20057;-59
2022/11/21 02:53:58;;;;;;;2.97;2.40;;;;;;;;;;10331720;28;20266;-59
2022/11/21 02:58:58;;;;;;;2.65;2.22;;;;;;;;;;10331659;28;20250;-66
2022/11/21 03:03:59;;;;;;;2.75;2.40;;;;;;;;;;10331138;28;20034;-62
2022/11/21 03:09:00;;;;;;;4.07;2.50;;;;;;;;;;10331979;28;20061;-63
2022/11/21 03:14:00;;;;;;;3.15;2.20;;;;;;;;;;10331852;28;20038;-57
2022/11/21 03:19:01;;;;;;;3.05;2.70;;;;;;;;;;10331701;28;20088;-61
2022/11/21 03:24:02;;;;;;;2.90;2.47;;;;;;;;;;10330984;28;20022;-61
2022/11/21 03:29:02;;;;;;;2.72;2.40;;;;;;;;;;10334064;23;20121;-46
2022/11/21 03:34:03;;;;;;;3.28;2.40;;;;;;;;;;10295751;28;20347;-49
2022/11/21 03:39:04;;;;;;;4.18;2.50;;;;;;;;;;10308848;28;20602;-48
2022/11/21 03:44:08;;;;;;;3.85;2.28;;;;;;;;;;10330064;28;20528;-47
2022/11/21 03:49:10;;;;;;;2.75;2.30;;;;;;;;;;10329966;28;20049;-47
2022/11/21 03:54:11;;;;;;;3.30;2.25;;;;;;;;;;10328668;28;20231;-47
2022/11/21 03:59:11;;;;;;;3.47;2.60;;;;;;;;;;10329332;28;20038;-58
2022/11/21 04:04:12;;;;;;;3.67;2.30;;;;;;;;;;10329343;28;20034;-46
2022/11/21 04:09:12;;;;;;;4.22;2.85;;;;;;;;;;10329796;28;20081;-48
2022/11/21 04:14:13;;;;;;;3.88;2.67;;;;;;;;;;10328887;28;20026;-48
2022/11/21 04:19:13;;;;;;;2.58;2.35;;;;;;;;;;10328773;28;20022;-49
2022/11/21 04:24:14;;;;;;;2.85;2.38;;;;;;;;;;10328805;28;20031;-48
2022/11/21 04:29:15;;;;;;;5.13;2.42;;;;;;;;;;10328780;28;20065;-46
2022/11/21 04:34:15;;;;;;;3.38;2.78;;;;;;;;;;10328135;28;20033;-46
2022/11/21 04:39:16;;;;;;;3.13;2.60;;;;;;;;;;10328435;28;20034;-57
2022/11/21 04:44:17;;;;;;;2.42;2.20;;;;;;;;;;10328207;28;20026;-48
2022/11/21 04:49:17;;;;;;;3.60;2.28;;;;;;;;;;10326523;28;20288;-46
2022/11/21 04:54:18;;;;;;;2.47;2.25;;;;;;;;;;10327538;28;20108;-48
2022/11/21 04:59:18;;;;;;;5.20;2.05;;;;;;;;;;10327276;28;20031;-48
2022/11/21 05:04:19;;;;;;;2.40;2.20;;;;;;;;;;10327196;28;20540;-46
2022/11/21 05:09:19;;;;;;;2.63;2.42;;;;;;;;;;10327999;28;20478;-56
2022/11/21 05:14:20;;;;;;;2.45;2.10;;;;;;;;;;10327604;28;20505;-47
2022/11/21 05:19:20;;;;;;;5.25;2.63;;;;;;;;;;10326877;28;20474;-47
2022/11/21 05:24:21;;;;;;;2.25;2.05;;;;;;;;;;10327129;28;20481;-46
2022/11/21 05:29:22;;;;;;;2.33;2.13;;;;;;;;;;10326317;28;20043;-46
2022/11/21 05:34:22;;;;;;;2.58;2.38;;;;;;;;;;10327409;28;20031;-47
2022/11/21 05:39:23;;;;;;;2.45;2.25;;;;;;;;;;10325528;28;20540;-48
2022/11/21 05:44:24;;;;;;;2.35;2.10;;;;;;;;;;10326398;28;20449;-48
2022/11/21 05:49:24;;;;;;;2.47;2.28;;;;;;;;;;10326643;28;20022;-46
2022/11/21 05:54:25;;;;;;;2.47;2.25;;;;;;;;;;10327020;28;20026;-47
2022/11/21 05:59:25;;;;;;;2.38;2.15;;;;;;;;;;10324966;28;20034;-47
2022/11/21 06:04:26;;;;;;;2.25;2.03;;;;;;;;;;10326436;28;20077;-46
2022/11/21 06:09:26;;;;;;;2.38;2.17;;;;;;;;;;10325968;28;20030;-47
2022/11/21 06:14:27;;;;;;;2.42;2.22;;;;;;;;;;10326198;28;20038;-55
2022/11/21 06:19:28;;;;;;;2.42;2.17;;;;;;;;;;10330240;28;20536;-48
2022/11/21 06:24:28;;;;;;;3.10;2.20;;;;;;;;;;10333054;28;20359;-49
2022/11/21 06:29:29;;;;;;;2.10;1.88;;;;;;;;;;10332765;28;20047;-48
2022/11/21 06:34:30;;;;;;;3.97;1.98;;;;;;;;;;10331369;28;20031;-54
2022/11/21 06:39:30;;;;;;;5.93;2.47;;;;;;;;;;10332496;28;20064;-49
2022/11/21 06:44:31;;;;;;;5.63;2.70;;;;;;;;;;10330727;28;20466;-48
2022/11/21 06:49:31;;;;;;;6.82;2.78;;;;;;;;;;10330705;28;20533;-57
2022/11/21 06:54:32;;;;;;;31.95;3.22;;;;;;;;;;10331004;28;20359;-55
2022/11/21 06:59:32;;;;;;;11.05;3.00;;;;;;;;;;10330396;28;20505;-51
2022/11/21 07:04:33;;;;;;;7.97;3.38;;;;;;;;;;10329469;28;20022;-47
2022/11/21 07:09:34;;;;;;;15.55;3.55;;;;;;;;;;10330753;28;20096;-53
2022/11/21 07:14:35;;;;;;;18.98;3.53;;;;;;;;;;10328897;28;20026;-51
2022/11/21 07:19:35;;;;;;;8.05;3.35;;;;;;;;;;10330061;28;20022;-46
2022/11/21 07:24:36;;;;;;;12.85;2.92;;;;;;;;;;10325206;28;20030;-54
2022/11/21 07:29:36;;;;;;;10.32;4.10;;;;;;;;;;10316922;28;20065;-52
2022/11/21 07:34:37;;;;;;;16.55;3.53;;;;;;;;;;10312413;28;20042;-51
2022/11/21 07:39:38;;;;;;;8.23;3.40;;;;;;;;;;10315532;28;20037;-58
2022/11/21 07:44:38;;;;;;;7.82;3.45;;;;;;;;;;10327398;28;20502;-47
2022/11/21 07:49:39;;;;;;;8.55;3.50;;;;;;;;;;10330246;28;20548;-54
2022/11/21 07:54:39;;;;;;;13.23;3.60;;;;;;;;;;10329358;28;20026;-52
2022/11/21 07:59:40;;;;;;;7.97;3.25;;;;;;;;;;10329205;28;20027;-46
2022/11/21 08:04:41;;;;;;;9.70;3.17;;;;;;;;;;10329652;28;20041;-51
2022/11/21 08:09:42;;;;;;;7.25;3.70;;;;;;;;;;10328869;28;20035;-53
2022/11/21 08:14:43;;;;;;;6.82;3.38;;;;;;;;;;10311580;28;20029;-47
2022/11/21 08:19:43;;;;;;;5.88;3.53;;;;;;;;;;10310106;28;20037;-51
2022/11/21 08:24:44;;;;;;;9.15;3.28;;;;;;;;;;10312336;28;20239;-50
2022/11/21 08:29:45;;;;;;;6.68;3.45;;;;;;;;;;10307564;28;20538;-48
2022/11/21 08:34:45;;;;;;;7.28;3.10;;;;;;;;;;10325819;28;20289;-49
2022/11/21 08:39:46;;;;;;;5.20;3.35;;;;;;;;;;10326080;28;20025;-48
2022/11/21 08:44:46;;;;;;;3.67;3.17;;;;;;;;;;10326252;28;20065;-53
2022/11/21 08:49:47;;;;;;;4.88;3.03;;;;;;;;;;10327488;28;20037;-56
2022/11/21 08:54:48;;;;;;;5.13;3.20;;;;;;;;;;10327555;28;20536;-51
2022/11/21 08:59:48;;;;;;;5.47;3.47;;;;;;;;;;10322407;28;20096;-48
2022/11/21 09:04:49;;;;;;;4.28;2.75;;;;;;;;;;10326245;28;20041;-49
2022/11/21 09:09:50;;;;;;;5.95;3.75;;;;;;;;;;10326873;28;20026;-49
2022/11/21 09:20:09;;;;;;;5.68;2.95;;;;;;;;;;10326343;28;20030;-49
2022/11/21 09:25:10;;;;;;;8.80;4.05;;;;;;;;;;10326995;28;20462;-57
2022/11/21 09:30:11;;;;;;;6.30;3.35;;;;;;;;;;10326537;28;20052;-54
2022/11/21 09:35:11;;;;;;;7.30;3.85;;;;;;;;;;10325747;28;20092;-51
2022/11/21 09:40:15;;;;;;;3.33;2.95;;;;;;;;;;10325335;28;20042;-48
2022/11/21 09:45:28;;;;;;;5.78;3.40;;;;;;;;;;10322366;28;20030;-62
2022/11/21 09:50:34;;;;;;;6.22;3.45;;;;;;;;;;10325277;28;20209;-51
2022/11/21 09:55:34;;;;;;;5.20;3.22;;;;;;;;;;10333888;28;20034;-47
2022/11/21 10:00:35;;;;;;;4.10;3.30;;;;;;;;;;10333012;28;20296;-51
2022/11/21 10:05:51;;;;;;;5.82;3.38;;;;;;;;;;10331039;28;20061;-62
2022/11/21 10:10:58;;;;;;;4.65;2.97;;;;;;;;;;10331604;28;20031;-48
2022/11/21 10:16:28;;;;;;;7.30;3.55;;;;;;;;;;10332890;28;20030;-48
2022/11/21 10:21:44;;;;;;;4.95;3.30;;;;;;;;;;10332742;28;20281;-52
2022/11/21 10:27:01;;;;;;;4.60;3.13;;;;;;;;;;10332575;28;20034;-51
2022/11/21 10:32:24;;;;;;;7.00;3.33;;;;;;;;;;10331976;28;20117;-50
2022/11/21 10:37:40;;;;;;;4.43;3.10;;;;;;;;;;10331373;28;20096;-48
2022/11/21 10:48:28;;;;;;;4.20;3.00;;;;;;;;;;10331268;28;20381;-50
2022/11/21 10:58:54;;;;;;;4.63;2.78;;;;;;;;;;10331507;28;20018;-51
2022/11/21 11:04:15;;;;;;;3.38;2.97;;;;;;;;;;10330182;28;20029;-57
2022/11/21 11:09:29;;;;;;;4.30;2.63;;;;;;;;;;10331464;28;20037;-48
2022/11/21 11:14:31;;;;;;;4.40;2.95;;;;;;;;;;10330575;28;20398;-51
2022/11/21 11:19:32;;;;;;;4.00;3.13;;;;;;;;;;10331072;28;20034;-48
2022/11/21 11:24:33;;;;;;;3.75;3.30;;;;;;;;;;10330665;28;20035;-50
2022/11/21 11:29:50;;;;;;;4.57;2.55;;;;;;;;;;10329755;28;20047;-48
2022/11/21 11:35:11;;;;;;;2.88;2.60;;;;;;;;;;10330062;28;20034;-52
2022/11/21 11:40:35;;;;;;;3.30;2.60;;;;;;;;;;10329777;28;20363;-48
2022/11/21 11:51:53;;;;;;;3.83;2.60;;;;;;;;;;10329353;28;20117;-48
2022/11/21 11:56:54;;;;;;;3.47;2.70;;;;;;;;;;10328328;28;20172;-47
2022/11/21 12:02:15;;;;;;;3.10;2.65;;;;;;;;;;10329334;28;20018;-53
2022/11/21 12:07:32;;;;;;;2.92;2.67;;;;;;;;;;10327027;28;20485;-50
2022/11/21 12:12:59;;;;;;;3.38;2.53;;;;;;;;;;10326717;28;20045;-47
2022/11/21 12:18:18;;;;;;;4.38;2.95;;;;;;;;;;10317882;28;20045;-48
2022/11/21 12:23:20;;;;;;;2.47;2.28;;;;;;;;;;10328260;28;20022;-49
2022/11/21 12:29:13;;;;;;;2.85;2.55;;;;;;;;;;10327505;28;20056;-55
2022/11/21 12:34:48;;;;;;;5.32;2.75;;;;;;;;;;10125341;28;20760;-46
2022/11/21 12:40:19;;;;;;;3.28;2.47;;;;;;;;;;10304644;28;20068;-54
2022/11/21 12:45:34;;;;;;;6.75;2.80;;;;;;;;;;10326671;28;20026;-51
2022/11/21 12:56:52;;;;;;;4.70;2.75;;;;;;;;;;10326616;28;20073;-49
2022/11/21 13:02:23;;;;;;;5.68;2.42;;;;;;;;;;10325663;28;20037;-50
2022/11/21 13:07:28;;;;;;;3.20;2.83;;;;;;;;;;10326050;28;20019;-48
2022/11/21 13:12:50;;;;;;;3.55;2.40;;;;;;;;;;10326325;28;20023;-50
2022/11/21 13:18:02;;;;;;;3.28;2.45;;;;;;;;;;10327354;28;20486;-50
2022/11/21 13:23:06;;;;;;;3.65;2.50;;;;;;;;;;10325488;28;20030;-48
2022/11/21 13:28:12;;;;;;;3.05;2.30;;;;;;;;;;10331171;28;20054;-54
2022/11/21 13:33:35;;;;;;;4.25;2.33;;;;;;;;;;10332839;28;20476;-48
2022/11/21 13:38:54;;;;;;;2.88;2.58;;;;;;;;;;10334283;28;20057;-48
2022/11/21 13:44:29;;;;;;;2.58;2.38;;;;;;;;;;10659553;23;20059;-67
2022/11/21 13:49:47;;;;;;;3.28;2.45;;;;;;;;;;10313824;28;20073;-67
2022/11/21 13:55:39;;;;;;;2.95;2.50;;;;;;;;;;10333942;28;20042;-63
2022/11/21 14:01:11;;;;;;;3.72;2.50;;;;;;;;;;10333628;28;20061;-64
2022/11/21 14:06:42;;;;;;;3.28;2.80;;;;;;;;;;10333599;28;20026;-62
2022/11/21 14:11:59;;;;;;;5.93;2.40;;;;;;;;;;10333252;28;20374;-54
2022/11/21 14:17:21;;;;;;;3.55;2.38;;;;;;;;;;10332696;28;20030;-47
2022/11/21 14:22:39;;;;;;;3.55;2.45;;;;;;;;;;10332779;28;20030;-64
2022/11/21 14:27:43;;;;;;;4.95;2.92;;;;;;;;;;10332052;28;20045;-66
2022/11/21 14:32:54;;;;;;;6.05;2.30;;;;;;;;;;10278350;28;20383;-55
2022/11/21 14:37:57;;;;;;;3.95;2.45;;;;;;;;;;10294384;28;20348;-59
2022/11/21 14:43:00;;;;;;;3.72;2.58;;;;;;;;;;10331761;28;20909;-64
2022/11/21 14:48:00;;;;;;;2.53;2.30;;;;;;;;;;10327539;28;20026;-52
2022/11/21 14:53:03;;;;;;;3.55;2.10;;;;;;;;;;10328052;28;20053;-57
2022/11/21 14:58:05;;;;;;;3.30;2.20;;;;;;;;;;10329241;28;20054;-52
2022/11/21 15:03:19;;;;;;;3.85;2.30;;;;;;;;;;10328435;28;20034;-59
2022/11/21 15:08:23;;;;;;;2.65;2.45;;;;;;;;;;10327601;28;20403;-56
2022/11/21 15:13:28;;;;;;;4.82;2.65;;;;;;;;;;10326736;28;20027;-56
2022/11/21 15:18:31;;;;;;;3.08;2.60;;;;;;;;;;10328346;28;20474;-56
2022/11/21 15:23:42;;;;;;;4.88;2.25;;;;;;;;;;10327017;28;20207;-55
2022/11/21 15:28:57;;;;;;;2.90;2.38;;;;;;;;;;10329124;28;20512;-56
2022/11/21 15:34:05;;;;;;;3.33;2.60;;;;;;;;;;10329454;28;20426;-63
2022/11/21 15:39:11;;;;;;;4.57;2.90;;;;;;;;;;10328489;28;20037;-56
2022/11/21 15:44:11;;;;;;;5.10;2.35;;;;;;;;;;10327752;28;20054;-52
2022/11/21 15:49:13;;;;;;;4.80;2.58;;;;;;;;;;10328557;28;20030;-59
2022/11/21 15:54:18;;;;;;;3.28;2.17;;;;;;;;;;10329168;28;20457;-56
2022/11/21 15:59:20;;;;;;;4.45;2.55;;;;;;;;;;10328334;28;20329;-57
2022/11/21 16:04:20;;;;;;;5.68;2.33;;;;;;;;;;10328316;28;20664;-60
2022/11/21 16:09:22;;;;;;;2.78;2.45;;;;;;;;;;10328881;28;20046;-62
2022/11/21 16:14:23;;;;;;;6.40;2.60;;;;;;;;;;10327818;28;20038;-62
2022/11/21 16:19:23;;;;;;;4.05;2.38;;;;;;;;;;10327057;28;20030;-63
2022/11/21 16:24:24;;;;;;;7.63;2.95;;;;;;;;;;10327644;28;20022;-58
2022/11/21 16:29:24;;;;;;;3.00;2.67;;;;;;;;;;10327425;28;20030;-64
2022/11/21 16:34:26;;;;;;;6.35;3.08;;;;;;;;;;10328243;28;20030;-57
2022/11/21 16:39:27;;;;;;;4.80;3.15;;;;;;;;;;10326906;28;20022;-57
2022/11/21 16:44:29;;;;;;;6.82;3.22;;;;;;;;;;10327365;28;20050;-61
2022/11/21 16:49:31;;;;;;;5.22;3.83;;;;;;;;;;10327126;28;20030;-60
2022/11/21 16:54:31;;;;;;;5.35;3.55;;;;;;;;;;10327220;28;20046;-65
2022/11/21 16:59:32;;;;;;;10.45;4.05;;;;;;;;;;10327242;28;20026;-62
2022/11/21 17:04:34;;;;;;;6.20;3.75;;;;;;;;;;10326634;28;20034;-65
2022/11/21 17:09:35;;;;;;;5.97;3.88;;;;;;;;;;10326950;28;20109;-62
2022/11/21 17:14:36;;;;;;;11.70;4.60;;;;;;;;;;10326361;28;20031;-62
2022/11/21 17:19:36;;;;;;;9.88;3.83;;;;;;;;;;10326803;28;20018;-65
2022/11/21 17:24:37;;;;;;;5.70;3.65;;;;;;;;;;10293791;28;20030;-63
2022/11/21 17:29:37;;;;;;;6.10;3.35;;;;;;;;;;10326101;28;20057;-65
2022/11/21 17:34:38;;;;;;;7.43;3.90;;;;;;;;;;10326908;28;20458;-64
2022/11/21 17:39:38;;;;;;;11.07;4.53;;;;;;;;;;10326496;28;20469;-64
2022/11/21 17:44:39;;;;;;;5.93;3.92;;;;;;;;;;10326026;28;20053;-65
2022/11/21 17:49:39;;;;;;;5.43;4.03;;;;;;;;;;10326496;28;20035;-63
2022/11/21 17:54:40;;;;;;;7.25;4.47;;;;;;;;;;10326791;28;20047;-65
2022/11/21 17:59:42;;;;;;;6.18;4.13;;;;;;;;;;10326037;28;20043;-66
2022/11/21 18:04:42;;;;;;;11.60;4.85;;;;;;;;;;10325010;28;20040;-55
2022/11/21 18:09:43;;;;;;;5.57;4.07;;;;;;;;;;10726193;23;20057;-49
2022/11/21 18:14:44;;;;;;;6.95;5.07;;;;;;;;;;10375822;28;20037;-54
2022/11/21 18:19:44;;;;;;;7.63;5.57;;;;;;;;;;10397179;28;20033;-53
2022/11/21 18:24:45;;;;;;;10.25;5.75;;;;;;;;;;10414181;28;20446;-58
2022/11/21 18:29:45;;;;;;;8.07;6.00;;;;;;;;;;10414068;28;20544;-49
2022/11/21 18:34:46;;;;;;;9.20;5.85;;;;;;;;;;10413208;28;20033;-46
2022/11/21 18:39:47;;;;;;;11.00;6.65;;;;;;;;;;10390448;28;20039;-58
2022/11/21 18:44:47;;;;;;;15.52;7.38;;;;;;;;;;10411041;28;20026;-56
2022/11/21 18:49:48;;;;;;;19.85;8.10;;;;;;;;;;10395245;28;20412;-51
2022/11/21 18:54:48;;;;;;;12.55;7.78;;;;;;;;;;10412693;28;20481;-55
2022/11/21 18:59:49;;;;;;;12.35;7.70;;;;;;;;;;10413142;28;20539;-53
2022/11/21 19:04:49;;;;;;;14.80;7.30;;;;;;;;;;10412193;28;20504;-57
2022/11/21 19:09:50;;;;;;;17.90;8.50;;;;;;;;;;10411850;28;20053;-55
2022/11/21 19:14:54;;;;;;;16.40;9.23;;;;;;;;;;10394229;28;20036;-57
2022/11/21 19:19:54;;;;;;;15.88;8.07;;;;;;;;;;10412106;28;20095;-52
2022/11/21 19:24:55;;;;;;;15.98;8.82;;;;;;;;;;10241415;28;20095;-62
2022/11/21 19:29:56;;;;;;;16.80;8.38;;;;;;;;;;10634322;23;20062;-61
2022/11/21 19:34:56;;;;;;;22.55;7.82;;;;;;;;;;10499014;28;20392;-63
2022/11/21 19:39:57;;;;;;;14.48;7.88;;;;;;;;;;10495927;28;20176;-61
2022/11/21 19:44:58;;;;;;;13.32;7.38;;;;;;;;;;10493519;28;20078;-57
2022/11/21 19:49:59;;;;;;;13.75;6.85;;;;;;;;;;10493309;28;20056;-50
2022/11/21 19:55:03;;;;;;;18.33;8.43;;;;;;;;;;10492804;28;20060;-48
2022/11/21 20:00:15;;;;;;;13.73;7.47;;;;;;;;;;10445246;28;20167;-55
2022/11/21 20:05:16;;;;;;;15.02;7.38;;;;;;;;;;10418721;28;20429;-48
2022/11/21 20:10:22;;;;;;;17.55;7.47;;;;;;;;;;10482738;28;20111;-46
2022/11/21 20:15:23;;;;;;;17.17;7.38;;;;;;;;;;10488234;28;20102;-63
2022/11/21 20:20:23;;;;;;;11.73;7.57;;;;;;;;;;10491025;28;20021;-62
2022/11/21 20:25:24;;;;;;;21.42;7.05;;;;;;;;;;10492124;28;20514;-45
2022/11/21 20:30:25;;;;;;;13.57;7.80;;;;;;;;;;10492417;28;20491;-64
2022/11/21 20:35:25;;;;;;;12.93;7.18;;;;;;;;;;10483771;28;20609;-69
2022/11/21 20:40:26;;;;;;;28.40;8.38;;;;;;;;;;10489984;28;20039;-59
2022/11/21 20:45:27;;;;;;;31.63;9.32;;;;;;;;;;10491183;28;20029;-60
2022/11/21 20:50:27;;;;;;;15.18;6.95;;;;;;;;;;10491705;28;20411;-54
2022/11/21 20:55:29;;;;;;;21.92;7.28;;;;;;;;;;10491412;28;20168;-51
2022/11/21 21:00:30;;;;;;;16.23;7.32;;;;;;;;;;10491158;28;20051;-46
2022/11/21 21:05:32;;;;;;;15.63;7.72;;;;;;;;;;10491303;28;20025;-51
2022/11/21 21:10:32;;;;;;;18.33;7.80;;;;;;;;;;10491686;28;20028;-58
2022/11/21 21:15:33;;;;;;;17.17;6.93;;;;;;;;;;10491477;28;20040;-62
2022/11/21 21:20:33;;;;;;;22.52;7.45;;;;;;;;;;10491488;28;20097;-61
2022/11/21 21:25:35;;;;;;;12.68;6.95;;;;;;;;;;10478634;28;20078;-47
2022/11/21 21:30:38;;;;;;;15.15;7.00;;;;;;;;;;10490347;28;20044;-49
2022/11/21 21:35:39;;;;;;;12.02;6.57;;;;;;;;;;10490855;28;20056;-49
2022/11/21 21:40:39;;;;;;;19.58;6.95;;;;;;;;;;10490083;28;20036;-62
2022/11/21 21:45:40;;;;;;;16.27;6.43;;;;;;;;;;10490318;28;20028;-61
2022/11/21 21:50:41;;;;;;;15.32;6.65;;;;;;;;;;10496954;28;20082;-57
2022/11/21 21:55:41;;;;;;;16.10;6.85;;;;;;;;;;10494731;28;20033;-46
2022/11/21 22:00:42;;;;;;;15.75;7.30;;;;;;;;;;10482141;28;20047;-46
2022/11/21 22:05:43;;;;;;;15.77;7.00;;;;;;;;;;10482124;28;20232;-55
2022/11/21 22:10:43;;;;;;;27.15;7.45;;;;;;;;;;10497213;28;20033;-62
2022/11/21 22:15:44;;;;;;;19.25;7.25;;;;;;;;;;10497117;28;20107;-59
2022/11/21 22:20:44;;;;;;;20.58;6.90;;;;;;;;;;10496213;28;20024;-55
2022/11/21 22:25:45;;;;;;;14.65;7.00;;;;;;;;;;10496229;28;20032;-62
2022/11/21 22:30:57;;;;;;;14.30;7.35;;;;;;;;;;10496256;28;20047;-49
2022/11/21 22:36:04;;;;;;;14.73;6.90;;;;;;;;;;10496666;28;20036;-58
2022/11/21 22:41:13;;;;;;;10.32;6.68;;;;;;;;;;10495744;28;20029;-60
2022/11/21 22:46:13;;;;;;;14.10;6.82;;;;;;;;;;10495973;28;20032;-51
2022/11/21 22:51:18;;;;;;;14.57;6.15;;;;;;;;;;10494976;28;20442;-52
2022/11/21 22:56:21;;;;;;;13.15;6.25;;;;;;;;;;10494728;28;20668;-57
2022/11/21 23:01:24;;;;;;;17.65;6.38;;;;;;;;;;10495258;28;20048;-48
2022/11/21 23:06:25;;;;;;;14.68;6.20;;;;;;;;;;10494166;28;20480;-52
2022/11/21 23:11:30;;;;;;;10.13;5.88;;;;;;;;;;10494626;28;20380;-55
2022/11/21 23:16:31;;;;;;;11.43;5.80;;;;;;;;;;10495220;28;20252;-62
2022/11/21 23:21:32;;;;;;;10.60;5.70;;;;;;;;;;10494792;28;20020;-63
2022/11/21 23:26:32;;;;;;;12.07;5.78;;;;;;;;;;10494503;28;20024;-52
2022/11/21 23:31:33;;;;;;;16.45;6.03;;;;;;;;;;10476351;28;20060;-47
2022/11/21 23:36:33;;;;;;;12.05;6.07;;;;;;;;;;10493658;28;20033;-45
2022/11/21 23:41:34;;;;;;;9.35;5.20;;;;;;;;;;10494249;28;20036;-49
2022/11/21 23:46:35;;;;;;;8.90;5.20;;;;;;;;;;10493471;28;20040;-50
2022/11/21 23:51:35;;;;;;;9.88;4.78;;;;;;;;;;10493754;28;20024;-47
2022/11/21 23:56:36;;;;;;;8.23;5.22;;;;;;;;;;10493093;28;20024;-53
